Terminal Aerodrome Forecast
Issued by NWS

Home | Current Version | Previous Version | Text Only | Print | Product List | Glossary On
Versions: 1 2 3 4 5 6 7 8 9 10 11 12 13 14 15 16 17 18
000
FTUS41 KBOX 261723
TAFHYA
TAF
KHYA 261723Z 2618/2718 26012KT P6SM FEW050
     FM262300 24009KT P6SM FEW250
     FM270400 31005KT P6SM FEW120=

USA.gov is the U.S. government's official web portal to all federal, state and local government web resources and services.